Time;durP1;ratioP1;P1;durP2;ratioP2;P2;SDS_P1;SDS_P2;PMS_P1;PMS_P2;Temp;Humidity;BMP_temperature;BMP_pressure;BME280_temperature;BME280_humidity;BME280_pressure;Samples;Min_cycle;Max_cycle;Signal;HPM_P1;HPM_P2
2023/12/02 00:00:24;;;;;;;6.93;3.37;;;19.70;56.50;;;;;;5011992;28;20176;-68
2023/12/02 00:02:49;;;;;;;4.10;3.03;;;19.60;56.40;;;;;;5011954;28;20663;-68
2023/12/02 00:05:15;;;;;;;4.40;2.60;;;19.70;56.50;;;;;;5011870;28;20276;-69
2023/12/02 00:07:41;;;;;;;5.70;3.00;;;19.60;56.40;;;;;;5011646;28;20650;-68
2023/12/02 00:10:07;;;;;;;4.03;2.40;;;19.70;56.50;;;;;;5011784;28;20233;-68
2023/12/02 00:12:32;;;;;;;4.10;2.90;;;19.60;57.00;;;;;;5011644;28;20222;-68
2023/12/02 00:14:58;;;;;;;4.17;2.70;;;19.60;56.40;;;;;;5011442;28;20454;-69
2023/12/02 00:17:24;;;;;;;4.70;2.57;;;19.60;56.50;;;;;;5011584;28;20179;-68
2023/12/02 00:19:49;;;;;;;4.93;3.10;;;19.60;56.40;;;;;;5011466;28;20188;-69
2023/12/02 00:22:15;;;;;;;4.73;2.77;;;19.60;56.50;;;;;;5011537;28;20172;-68
2023/12/02 00:24:40;;;;;;;4.60;2.60;;;19.60;56.50;;;;;;5011635;28;20632;-68
2023/12/02 00:27:06;;;;;;;5.67;3.30;;;19.60;56.50;;;;;;5011468;28;20263;-69
2023/12/02 00:29:32;;;;;;;3.27;2.50;;;19.60;56.50;;;;;;5011376;28;20523;-69
2023/12/02 00:31:57;;;;;;;6.40;3.07;;;19.60;56.50;;;;;;5011306;28;20259;-69
2023/12/02 00:34:23;;;;;;;6.53;2.80;;;19.60;56.50;;;;;;5011135;28;20588;-68
2023/12/02 00:36:49;;;;;;;5.50;2.80;;;19.60;56.50;;;;;;5011269;28;20214;-69
2023/12/02 00:39:15;;;;;;;3.73;2.60;;;19.60;56.50;;;;;;5011184;28;20205;-69
2023/12/02 00:41:41;;;;;;;3.70;2.83;;;19.60;56.50;;;;;;5011124;28;20211;-69
2023/12/02 00:44:07;;;;;;;8.63;3.57;;;19.60;56.50;;;;;;5011061;28;20852;-69
2023/12/02 00:46:32;;;;;;;4.50;3.53;;;19.60;56.50;;;;;;5011007;28;20511;-69
2023/12/02 00:48:58;;;;;;;4.07;2.63;;;19.60;56.50;;;;;;5011025;28;20234;-69
2023/12/02 00:51:24;;;;;;;4.03;2.70;;;19.60;56.50;;;;;;5010955;28;20176;-68
2023/12/02 00:53:49;;;;;;;4.33;2.90;;;19.60;56.50;;;;;;5010793;28;20208;-68
2023/12/02 00:56:16;;;;;;;6.00;2.70;;;19.60;56.50;;;;;;5010853;28;20200;-68
2023/12/02 00:58:42;;;;;;;4.80;3.10;;;19.60;56.50;;;;;;5010887;28;20176;-69
2023/12/02 01:01:08;;;;;;;4.97;3.10;;;19.60;56.50;;;;;;5010851;28;20411;-69
2023/12/02 01:03:34;;;;;;;6.00;3.10;;;19.60;56.50;;;;;;5010747;28;20203;-66
2023/12/02 01:05:59;;;;;;;4.33;2.50;;;19.60;56.50;;;;;;5010721;28;20474;-69
2023/12/02 01:08:25;;;;;;;3.93;2.13;;;19.60;56.60;;;;;;5010721;28;20176;-68
2023/12/02 01:10:51;;;;;;;5.20;2.63;;;19.60;56.50;;;;;;5010650;28;20185;-69
2023/12/02 01:13:16;;;;;;;3.83;2.90;;;19.60;56.50;;;;;;5010619;28;20175;-69
2023/12/02 01:15:42;;;;;;;3.37;2.60;;;19.60;56.50;;;;;;5010397;28;20686;-68
2023/12/02 01:18:07;;;;;;;4.70;3.00;;;19.60;56.50;;;;;;5009082;28;20172;-69
2023/12/02 01:20:33;;;;;;;4.23;2.80;;;19.60;56.50;;;;;;5010400;28;20189;-69
2023/12/02 01:22:59;;;;;;;5.03;2.80;;;19.60;56.50;;;;;;5010742;28;20559;-68
2023/12/02 01:25:24;;;;;;;4.80;2.87;;;19.60;56.50;;;;;;5010314;28;20323;-68
2023/12/02 01:27:50;;;;;;;5.30;3.07;;;19.60;56.50;;;;;;5010510;28;20190;-68
2023/12/02 01:30:16;;;;;;;2.80;2.30;;;19.60;56.50;;;;;;5010439;28;20180;-69
2023/12/02 01:32:41;;;;;;;3.57;2.70;;;19.60;56.60;;;;;;5010422;28;20195;-69
2023/12/02 01:35:07;;;;;;;3.70;2.60;;;19.60;56.60;;;;;;5010499;28;20977;-69
2023/12/02 01:37:33;;;;;;;4.30;2.40;;;19.60;56.60;;;;;;5010637;28;20235;-69
2023/12/02 01:39:58;;;;;;;3.60;2.70;;;19.60;56.60;;;;;;5010265;28;20438;-68
2023/12/02 01:42:24;;;;;;;4.50;2.40;;;19.60;56.50;;;;;;5010403;28;20183;-68
2023/12/02 01:44:49;;;;;;;5.37;3.03;;;19.60;56.50;;;;;;5010133;28;20195;-69
2023/12/02 01:47:15;;;;;;;4.10;2.40;;;19.60;56.50;;;;;;5010326;28;20180;-68
2023/12/02 01:49:43;;;;;;;3.60;2.80;;;19.60;56.50;;;;;;5010160;28;20192;-69
2023/12/02 01:52:08;;;;;;;4.93;2.30;;;19.60;56.50;;;;;;5010194;28;20172;-69
2023/12/02 01:54:34;;;;;;;3.20;2.90;;;19.60;56.50;;;;;;5009998;28;20469;-68
2023/12/02 01:57:00;;;;;;;3.27;2.87;;;19.60;56.60;;;;;;5010132;28;20188;-69
2023/12/02 01:59:26;;;;;;;8.03;3.13;;;19.60;56.50;;;;;;5010126;28;20184;-68
2023/12/02 02:01:51;;;;;;;3.10;2.33;;;19.60;56.60;;;;;;5010139;28;20168;-69
2023/12/02 02:04:18;;;;;;;7.40;2.77;;;19.60;56.50;;;;;;5009941;28;20173;-69
2023/12/02 02:06:44;;;;;;;4.07;2.80;;;19.60;57.10;;;;;;5010063;28;20172;-69
2023/12/02 02:09:10;;;;;;;6.03;2.77;;;19.60;56.60;;;;;;5010036;28;20426;-69
2023/12/02 02:11:36;;;;;;;3.90;2.27;;;19.60;56.50;;;;;;5008566;28;20419;-69
2023/12/02 02:14:04;;;;;;;4.07;2.70;;;19.60;56.50;;;;;;5009870;28;20633;-69
2023/12/02 02:16:29;;;;;;;3.23;2.20;;;19.60;56.60;;;;;;5009871;28;20439;-69
2023/12/02 02:18:55;;;;;;;5.00;2.60;;;19.60;56.60;;;;;;5010029;28;20497;-69
2023/12/02 02:21:21;;;;;;;4.80;2.77;;;19.60;56.50;;;;;;5009953;28;20191;-68
2023/12/02 02:23:46;;;;;;;8.60;3.07;;;19.60;56.50;;;;;;5009883;28;20184;-68
2023/12/02 02:26:12;;;;;;;5.07;2.50;;;19.60;56.50;;;;;;5009690;28;21266;-69
2023/12/02 02:28:38;;;;;;;4.93;2.33;;;19.60;56.50;;;;;;5009876;28;20223;-69
2023/12/02 02:31:03;;;;;;;4.10;2.80;;;19.60;56.50;;;;;;5010410;28;20222;-69
2023/12/02 02:33:32;;;;;;;3.97;2.30;;;19.50;56.40;;;;;;5013411;28;20264;-68
2023/12/02 02:35:58;;;;;;;2.80;2.37;;;19.60;56.60;;;;;;5013305;28;20199;-68
2023/12/02 02:38:24;;;;;;;3.80;2.53;;;19.60;56.60;;;;;;5013282;28;20411;-69
2023/12/02 02:40:49;;;;;;;2.90;2.33;;;19.60;56.50;;;;;;5013354;28;20415;-69
2023/12/02 02:43:16;;;;;;;3.70;3.07;;;19.60;56.60;;;;;;5013289;28;20415;-69
2023/12/02 02:45:41;;;;;;;3.23;2.30;;;19.60;56.60;;;;;;5013163;28;20659;-69
2023/12/02 02:48:08;;;;;;;3.00;2.63;;;19.60;56.50;;;;;;5013132;28;20415;-69
2023/12/02 02:50:34;;;;;;;4.10;2.83;;;19.60;56.50;;;;;;5013218;28;20569;-68
2023/12/02 02:53:00;;;;;;;3.40;2.77;;;19.60;56.50;;;;;;5013161;28;20418;-68
2023/12/02 02:55:25;;;;;;;2.20;2.00;;;19.60;56.50;;;;;;5013177;28;20467;-69
2023/12/02 02:57:51;;;;;;;3.70;2.47;;;19.60;56.60;;;;;;5012986;28;20581;-69
2023/12/02 03:00:18;;;;;;;3.10;2.50;;;19.60;56.50;;;;;;5012888;28;20176;-69
2023/12/02 03:02:44;;;;;;;3.50;2.30;;;19.60;56.50;;;;;;5011628;28;20183;-68
2023/12/02 03:05:10;;;;;;;5.60;2.60;;;19.60;56.50;;;;;;5013067;28;20439;-68
2023/12/02 03:07:36;;;;;;;2.67;2.10;;;19.60;56.50;;;;;;5012786;28;20878;-69
2023/12/02 03:10:01;;;;;;;3.60;2.43;;;19.50;56.40;;;;;;5012724;28;20185;-69
2023/12/02 03:12:27;;;;;;;2.83;2.30;;;19.50;56.40;;;;;;5012740;28;20557;-69
2023/12/02 03:14:54;;;;;;;4.13;2.27;;;19.50;56.40;;;;;;5012482;28;20211;-69
2023/12/02 03:17:19;;;;;;;4.87;2.60;;;19.60;56.50;;;;;;5012604;28;20176;-69
2023/12/02 03:19:46;;;;;;;4.47;2.70;;;19.50;56.40;;;;;;5012578;28;21009;-69
2023/12/02 03:22:12;;;;;;;3.80;2.30;;;19.60;56.50;;;;;;5012538;28;20173;-69
2023/12/02 03:24:37;;;;;;;3.23;2.30;;;19.60;56.50;;;;;;5012659;28;20529;-69
2023/12/02 03:27:03;;;;;;;3.40;2.30;;;19.50;56.40;;;;;;5012509;28;20196;-68
2023/12/02 03:29:29;;;;;;;4.30;2.60;;;19.50;56.40;;;;;;5012406;28;20176;-68
2023/12/02 03:31:55;;;;;;;3.47;2.80;;;19.50;56.40;;;;;;5012400;28;20188;-69
2023/12/02 03:34:20;;;;;;;7.13;2.57;;;19.50;56.40;;;;;;5012165;28;20219;-68
2023/12/02 03:36:46;;;;;;;3.70;2.50;;;19.50;56.40;;;;;;5012234;28;20255;-67
2023/12/02 03:39:15;;;;;;;2.90;2.30;;;19.50;56.50;;;;;;5012279;28;20563;-69
2023/12/02 03:41:42;;;;;;;3.33;2.33;;;19.50;56.40;;;;;;5011736;28;20571;-69
2023/12/02 03:44:10;;;;;;;4.20;2.13;;;19.50;56.40;;;;;;5012374;28;20869;-69
2023/12/02 03:46:36;;;;;;;2.57;1.90;;;19.50;56.40;;;;;;5012047;28;20450;-69
2023/12/02 03:49:03;;;;;;;3.93;2.30;;;19.50;56.40;;;;;;5012019;28;20419;-69
2023/12/02 03:51:29;;;;;;;3.00;2.20;;;19.50;56.40;;;;;;5011982;28;20415;-69
2023/12/02 03:53:55;;;;;;;2.53;2.10;;;19.50;56.40;;;;;;5011933;28;20463;-69
2023/12/02 03:56:20;;;;;;;4.23;2.40;;;19.50;56.50;;;;;;5012034;28;20439;-68
2023/12/02 03:58:46;;;;;;;2.67;2.33;;;19.50;56.40;;;;;;5011742;28;20180;-69
2023/12/02 04:01:13;;;;;;;3.70;2.63;;;19.50;56.40;;;;;;5012117;28;20230;-69
2023/12/02 04:03:38;;;;;;;4.80;2.70;;;19.50;56.40;;;;;;5011664;28;20196;-69
2023/12/02 04:06:05;;;;;;;2.80;2.17;;;19.50;56.40;;;;;;5011645;28;20475;-69
2023/12/02 04:08:31;;;;;;;3.07;2.10;;;19.50;56.50;;;;;;5011590;28;20176;-68
2023/12/02 04:10:57;;;;;;;3.30;2.13;;;19.50;56.40;;;;;;5011602;28;20495;-69
2023/12/02 04:13:23;;;;;;;4.10;2.03;;;19.50;56.50;;;;;;5011603;28;20494;-69
2023/12/02 04:15:48;;;;;;;3.83;2.60;;;19.50;56.50;;;;;;5011650;28;20219;-69
2023/12/02 04:18:14;;;;;;;4.10;2.20;;;19.50;56.40;;;;;;5011758;28;20188;-69
2023/12/02 04:20:40;;;;;;;3.23;1.77;;;19.50;56.50;;;;;;5011479;28;20180;-69
2023/12/02 04:23:05;;;;;;;4.30;2.53;;;19.50;56.50;;;;;;5011364;28;20191;-68
2023/12/02 04:25:31;;;;;;;3.57;2.03;;;19.50;56.50;;;;;;5011229;28;20455;-69
2023/12/02 04:27:57;;;;;;;3.10;1.97;;;19.50;56.50;;;;;;5011300;28;20186;-68
2023/12/02 04:30:22;;;;;;;3.50;2.10;;;19.50;56.50;;;;;;5011291;28;20179;-69
2023/12/02 04:32:48;;;;;;;3.07;2.10;;;19.50;56.50;;;;;;5011245;28;20203;-69
2023/12/02 04:35:14;;;;;;;2.47;2.00;;;19.50;56.50;;;;;;5011044;28;20196;-69
2023/12/02 04:37:41;;;;;;;3.80;2.37;;;19.50;56.50;;;;;;5011196;28;20196;-69
2023/12/02 04:40:11;;;;;;;3.10;2.30;;;19.50;56.50;;;;;;5011378;28;20498;-68
2023/12/02 04:42:40;;;;;;;3.50;2.00;;;19.50;56.50;;;;;;5011015;28;20407;-69
2023/12/02 04:45:07;;;;;;;4.03;2.20;;;19.50;56.50;;;;;;5010952;28;20855;-69
2023/12/02 04:47:36;;;;;;;3.30;2.10;;;19.50;56.50;;;;;;5010977;28;20988;-69
2023/12/02 04:50:03;;;;;;;2.90;2.10;;;19.50;56.50;;;;;;5011196;28;20403;-69
2023/12/02 04:52:30;;;;;;;2.63;2.07;;;19.50;56.50;;;;;;5010973;28;20407;-69
2023/12/02 04:54:56;;;;;;;1.87;1.67;;;19.50;56.50;;;;;;5010198;28;20538;-69
2023/12/02 04:57:21;;;;;;;3.83;2.07;;;19.50;56.50;;;;;;5010833;28;20498;-69
2023/12/02 04:59:47;;;;;;;4.73;2.27;;;19.50;56.50;;;;;;5011002;28;20255;-69
2023/12/02 05:02:14;;;;;;;2.70;1.77;;;19.50;56.50;;;;;;5010754;28;20187;-69
2023/12/02 05:04:40;;;;;;;3.47;2.10;;;19.50;56.50;;;;;;5010554;28;20207;-69
2023/12/02 05:07:06;;;;;;;2.73;2.10;;;19.50;56.50;;;;;;5010715;28;20834;-69
2023/12/02 05:09:31;;;;;;;2.23;1.90;;;19.50;56.50;;;;;;5010640;28;20415;-69
2023/12/02 05:11:57;;;;;;;2.60;2.07;;;19.40;56.50;;;;;;5010666;28;20180;-69
2023/12/02 05:14:23;;;;;;;4.07;2.63;;;19.40;56.50;;;;;;5010413;28;20247;-69
2023/12/02 05:16:48;;;;;;;3.17;1.93;;;19.40;56.50;;;;;;5010525;28;20552;-69
2023/12/02 05:19:14;;;;;;;2.80;1.90;;;19.40;56.50;;;;;;5008946;28;20207;-69
2023/12/02 05:21:39;;;;;;;3.47;2.30;;;19.40;56.50;;;;;;5010512;28;20180;-69
2023/12/02 05:24:05;;;;;;;2.80;2.10;;;19.40;56.50;;;;;;5010484;28;20321;-68
2023/12/02 05:26:31;;;;;;;2.70;1.70;;;19.40;56.50;;;;;;5010275;28;20689;-69
2023/12/02 05:28:58;;;;;;;2.90;2.13;;;19.40;56.50;;;;;;5010391;28;20418;-69
2023/12/02 05:31:24;;;;;;;4.93;3.93;;;19.40;56.60;;;;;;5010391;28;21083;-68
2023/12/02 05:33:49;;;;;;;4.30;3.70;;;19.40;56.40;;;;;;5009588;28;20462;-68
2023/12/02 05:36:15;;;;;;;5.43;3.80;;;19.40;56.10;;;;;;5009645;28;20203;-69
2023/12/02 05:38:41;;;;;;;3.73;3.33;;;19.40;55.70;;;;;;5010272;28;20234;-69
2023/12/02 05:41:07;;;;;;;3.20;2.43;;;19.40;55.70;;;;;;5010282;28;20191;-69
2023/12/02 05:43:32;;;;;;;2.70;2.10;;;19.40;55.90;;;;;;5010255;28;20678;-69
2023/12/02 05:45:58;;;;;;;3.10;2.10;;;19.40;56.10;;;;;;5010184;28;20420;-69
2023/12/02 05:48:24;;;;;;;2.50;2.30;;;19.40;56.20;;;;;;5010168;28;20176;-69
2023/12/02 05:50:50;;;;;;;3.43;2.80;;;19.40;56.20;;;;;;5009019;28;20655;-69
2023/12/02 05:53:16;;;;;;;4.50;2.57;;;19.30;56.10;;;;;;5008840;28;20426;-70
2023/12/02 05:55:42;;;;;;;2.60;1.97;;;19.30;56.20;;;;;;5010014;28;21290;-68
2023/12/02 05:58:07;;;;;;;3.47;2.37;;;19.40;56.30;;;;;;5010478;28;20250;-67
2023/12/02 06:00:35;;;;;;;3.23;2.90;;;19.30;56.30;;;;;;5010164;28;20208;-67
2023/12/02 06:03:01;;;;;;;4.00;2.77;;;19.30;56.20;;;;;;5010120;28;20227;-69
2023/12/02 06:05:27;;;;;;;3.83;2.80;;;19.40;56.30;;;;;;5010762;28;20431;-70
2023/12/02 06:07:53;;;;;;;3.50;2.67;;;19.40;56.30;;;;;;5013839;28;20424;-68
2023/12/02 06:10:19;;;;;;;3.80;2.70;;;19.40;56.30;;;;;;5012780;28;20234;-69
2023/12/02 06:12:44;;;;;;;4.30;2.87;;;19.40;56.30;;;;;;5012463;28;20446;-69
2023/12/02 06:15:10;;;;;;;5.07;2.80;;;19.40;56.40;;;;;;5013693;28;20865;-69
2023/12/02 06:17:36;;;;;;;3.67;2.33;;;19.40;56.30;;;;;;5013628;28;20172;-68
2023/12/02 06:20:02;;;;;;;3.30;2.83;;;19.40;56.30;;;;;;5013682;28;20164;-69
2023/12/02 06:22:28;;;;;;;2.60;2.23;;;19.40;56.30;;;;;;5013692;28;20674;-69
2023/12/02 06:24:53;;;;;;;3.07;2.63;;;19.40;56.30;;;;;;5013735;28;20455;-68
2023/12/02 06:27:19;;;;;;;3.20;2.90;;;19.40;56.30;;;;;;5013745;28;20179;-68
2023/12/02 06:29:44;;;;;;;4.13;2.70;;;19.40;56.30;;;;;;5013831;28;20181;-68
2023/12/02 06:32:10;;;;;;;4.27;2.93;;;19.40;56.30;;;;;;5013527;28;20173;-69
2023/12/02 06:34:35;;;;;;;7.27;2.70;;;19.40;56.30;;;;;;5013332;28;20679;-68
2023/12/02 06:37:01;;;;;;;2.93;2.40;;;19.40;56.30;;;;;;5013486;28;20170;-69
2023/12/02 06:39:27;;;;;;;3.87;3.20;;;19.40;56.30;;;;;;5013324;28;20259;-68
2023/12/02 06:41:53;;;;;;;4.27;2.87;;;19.40;56.30;;;;;;5013344;28;20231;-69
2023/12/02 06:44:18;;;;;;;5.47;2.77;;;19.30;56.30;;;;;;5013536;28;20411;-68
2023/12/02 06:46:44;;;;;;;3.10;2.40;;;19.30;56.30;;;;;;5013221;28;20183;-69
2023/12/02 06:49:09;;;;;;;3.90;2.63;;;19.30;56.30;;;;;;5013217;28;20181;-69
2023/12/02 06:51:35;;;;;;;2.90;2.40;;;19.30;56.30;;;;;;5013125;28;20172;-68
2023/12/02 06:54:01;;;;;;;3.30;2.80;;;19.40;56.30;;;;;;5013320;28;20770;-68
2023/12/02 06:56:26;;;;;;;4.77;2.97;;;19.40;56.30;;;;;;5013223;28;20203;-68
2023/12/02 06:58:52;;;;;;;2.93;2.27;;;19.40;56.30;;;;;;5013091;28;20211;-69
2023/12/02 07:01:31;;;;;;;3.30;2.60;;;19.40;56.40;;;;;;5013104;28;20920;-68
2023/12/02 07:03:58;;;;;;;2.57;2.37;;;19.40;56.40;;;;;;5012909;28;20415;-69
2023/12/02 07:06:25;;;;;;;4.33;2.80;;;19.40;56.40;;;;;;5012918;28;20439;-69
2023/12/02 07:08:51;;;;;;;2.80;2.47;;;19.40;56.40;;;;;;5012845;28;20411;-69
2023/12/02 07:11:17;;;;;;;3.23;2.60;;;19.40;56.40;;;;;;5012772;28;20419;-68
2023/12/02 07:13:43;;;;;;;2.50;2.10;;;19.40;56.30;;;;;;5012712;28;20770;-67
2023/12/02 07:16:10;;;;;;;2.40;2.20;;;19.40;56.30;;;;;;5012654;28;20215;-67
2023/12/02 07:18:36;;;;;;;5.50;2.70;;;19.50;56.40;;;;;;5011975;28;20412;-69
2023/12/02 07:21:01;;;;;;;3.27;2.27;;;19.50;56.40;;;;;;5012695;28;20414;-68
2023/12/02 07:23:28;;;;;;;3.40;2.67;;;19.50;56.40;;;;;;5012729;28;20180;-68
2023/12/02 07:25:55;;;;;;;3.00;1.80;;;19.50;56.30;;;;;;5012390;28;20212;-68
2023/12/02 07:28:20;;;;;;;2.47;2.17;;;19.50;56.30;;;;;;5012557;28;20407;-67
2023/12/02 07:30:48;;;;;;;3.13;2.70;;;19.50;56.30;;;;;;5012456;28;20442;-68
2023/12/02 07:33:14;;;;;;;2.50;2.30;;;19.50;56.30;;;;;;5012414;28;20177;-68
2023/12/02 07:35:39;;;;;;;3.33;2.03;;;19.60;56.90;;;;;;5012254;28;20463;-67
2023/12/02 07:38:05;;;;;;;3.10;2.40;;;19.60;56.30;;;;;;5012709;28;20255;-68
2023/12/02 07:40:31;;;;;;;3.70;2.70;;;19.60;56.30;;;;;;5012359;28;20180;-68
2023/12/02 07:42:56;;;;;;;3.60;2.30;;;19.60;56.30;;;;;;5012218;28;20218;-67
2023/12/02 07:45:22;;;;;;;3.10;2.10;;;19.60;56.30;;;;;;5010816;28;20219;-68
2023/12/02 07:47:47;;;;;;;2.70;2.10;;;19.60;56.30;;;;;;5012114;28;20184;-68
2023/12/02 07:50:13;;;;;;;3.10;2.63;;;19.60;56.30;;;;;;5012157;28;20191;-69
2023/12/02 07:52:39;;;;;;;3.27;2.50;;;19.60;56.30;;;;;;5012354;28;20188;-68
2023/12/02 07:55:05;;;;;;;2.43;2.00;;;19.60;56.30;;;;;;5011895;28;20290;-69
2023/12/02 07:57:30;;;;;;;3.00;2.17;;;19.60;56.20;;;;;;5012207;28;20219;-69
2023/12/02 07:59:56;;;;;;;2.83;2.30;;;19.60;56.30;;;;;;5010684;28;20420;-68
2023/12/02 08:02:22;;;;;;;3.37;2.40;;;19.60;56.30;;;;;;5011890;28;20593;-69
2023/12/02 08:04:47;;;;;;;2.33;1.80;;;19.60;56.20;;;;;;5011805;28;20196;-69
2023/12/02 08:07:13;;;;;;;3.20;2.13;;;19.60;56.30;;;;;;5011900;28;20184;-69
2023/12/02 08:09:38;;;;;;;2.97;2.37;;;19.60;56.20;;;;;;5011756;28;20178;-68
2023/12/02 08:12:04;;;;;;;3.50;2.20;;;19.60;56.20;;;;;;5010401;28;20175;-69
2023/12/02 08:14:30;;;;;;;2.90;2.50;;;19.60;56.20;;;;;;5011506;28;20278;-68
2023/12/02 08:16:56;;;;;;;2.90;2.00;;;19.60;56.20;;;;;;5010095;28;20510;-68
2023/12/02 08:19:21;;;;;;;4.83;2.70;;;19.60;56.20;;;;;;5011572;28;20248;-69
2023/12/02 08:21:47;;;;;;;2.93;2.30;;;19.60;56.20;;;;;;5010271;28;20180;-68
2023/12/02 08:24:13;;;;;;;2.40;2.00;;;19.60;56.20;;;;;;5011698;28;20550;-68
2023/12/02 08:26:38;;;;;;;2.63;2.13;;;19.60;56.20;;;;;;5011373;28;20266;-69
2023/12/02 08:29:04;;;;;;;3.33;2.67;;;19.60;56.20;;;;;;5010088;28;20208;-69
2023/12/02 08:31:32;;;;;;;2.93;1.90;;;19.60;56.20;;;;;;5011355;28;20643;-68
2023/12/02 08:33:57;;;;;;;2.80;2.10;;;19.60;56.20;;;;;;5011448;28;20204;-69
2023/12/02 08:36:23;;;;;;;3.47;2.10;;;19.60;56.20;;;;;;5011145;28;20436;-69
2023/12/02 08:38:48;;;;;;;3.23;2.10;;;19.60;56.20;;;;;;5011237;28;20181;-68
2023/12/02 08:41:14;;;;;;;2.63;2.40;;;19.60;56.70;;;;;;5011418;28;20655;-68
2023/12/02 08:43:43;;;;;;;3.37;2.70;;;19.60;56.20;;;;;;5011191;28;20176;-68
2023/12/02 08:46:17;;;;;;;3.33;2.00;;;19.60;56.20;;;;;;5011266;28;20659;-69
2023/12/02 08:48:42;;;;;;;3.90;2.60;;;19.60;56.20;;;;;;5011159;28;20411;-69
2023/12/02 08:51:08;;;;;;;2.50;1.97;;;19.60;56.20;;;;;;5011050;28;20472;-68
2023/12/02 08:53:34;;;;;;;5.03;2.17;;;19.60;56.20;;;;;;5010975;28;20411;-68
2023/12/02 08:56:00;;;;;;;4.63;2.40;;;19.60;56.20;;;;;;5010724;28;20214;-69
2023/12/02 08:58:25;;;;;;;2.53;2.10;;;19.60;56.20;;;;;;5011059;28;20634;-69
2023/12/02 09:00:51;;;;;;;2.87;2.30;;;19.60;56.20;;;;;;5010828;28;20172;-69
2023/12/02 09:03:17;;;;;;;3.30;1.93;;;19.60;56.20;;;;;;5010829;28;20589;-68
2023/12/02 09:05:42;;;;;;;2.83;2.37;;;19.60;56.20;;;;;;5010832;28;20702;-69
2023/12/02 09:08:08;;;;;;;3.70;2.50;;;19.60;56.20;;;;;;5010748;28;20175;-69
2023/12/02 09:10:33;;;;;;;2.47;2.10;;;19.60;56.20;;;;;;5010737;28;20180;-68
2023/12/02 09:12:59;;;;;;;8.60;2.13;;;19.60;56.20;;;;;;5010698;28;20647;-69
2023/12/02 09:15:43;;;;;;;2.67;1.90;;;19.60;56.20;;;;;;5010595;28;20698;-69
2023/12/02 09:18:10;;;;;;;3.20;2.03;;;19.60;56.20;;;;;;5010906;28;20243;-69
2023/12/02 09:20:53;;;;;;;2.67;2.00;;;19.60;56.20;;;;;;5010638;28;20461;-69
2023/12/02 09:23:20;;;;;;;2.40;1.90;;;19.60;56.20;;;;;;5009197;28;20526;-68
2023/12/02 09:25:47;;;;;;;3.37;2.00;;;19.60;56.20;;;;;;5010426;28;20550;-69
2023/12/02 09:28:16;;;;;;;2.50;2.00;;;19.60;56.20;;;;;;5010517;28;20489;-69
2023/12/02 09:30:58;;;;;;;2.37;1.80;;;19.60;56.20;;;;;;5010394;28;20782;-69
2023/12/02 09:33:26;;;;;;;3.23;2.27;;;19.60;56.20;;;;;;5010711;28;20765;-68
2023/12/02 09:35:57;;;;;;;2.33;2.10;;;19.60;56.20;;;;;;5008941;28;21021;-68
2023/12/02 09:38:23;;;;;;;2.60;2.40;;;19.60;56.30;;;;;;5010149;28;20438;-69
2023/12/02 09:41:04;;;;;;;2.87;2.57;;;19.60;56.20;;;;;;5012708;28;20484;-68
2023/12/02 09:43:36;;;;;;;3.60;2.53;;;19.60;56.20;;;;;;5016783;28;20469;-68
2023/12/02 09:46:31;;;;;;;2.90;2.00;;;19.60;56.20;;;;;;5016655;28;20446;-69
2023/12/02 09:49:06;;;;;;;2.70;1.80;;;19.60;56.20;;;;;;5016812;28;20391;-69
2023/12/02 09:51:37;;;;;;;2.33;1.83;;;19.60;56.30;;;;;;5016706;28;20464;-68
2023/12/02 09:54:12;;;;;;;3.33;1.67;;;19.60;56.30;;;;;;5016619;28;20956;-69
2023/12/02 09:56:44;;;;;;;4.50;2.10;;;19.60;56.30;;;;;;5015928;28;20407;-67
2023/12/02 09:59:19;;;;;;;2.60;1.93;;;19.60;56.30;;;;;;5016968;28;20396;-67
2023/12/02 10:02:15;;;;;;;3.07;1.87;;;19.60;56.30;;;;;;5016644;28;20402;-68
2023/12/02 10:05:04;;;;;;;2.50;2.30;;;19.60;56.30;;;;;;5015240;28;20533;-67
2023/12/02 10:08:00;;;;;;;2.40;1.93;;;19.60;56.30;;;;;;5016958;28;20973;-66
2023/12/02 10:10:40;;;;;;;2.67;1.90;;;19.60;56.30;;;;;;4994790;28;20465;-67
2023/12/02 10:13:23;;;;;;;2.43;2.10;;;19.60;56.40;;;;;;5016607;28;20407;-67
2023/12/02 10:15:52;;;;;;;2.70;1.93;;;19.50;56.30;;;;;;5016422;28;20912;-68
2023/12/02 10:18:22;;;;;;;1.73;1.50;;;19.50;56.30;;;;;;5016445;28;20997;-67
2023/12/02 10:20:55;;;;;;;3.97;2.23;;;19.50;56.30;;;;;;5016600;28;20415;-67
2023/12/02 10:23:25;;;;;;;2.50;1.70;;;19.50;56.30;;;;;;5016423;28;20487;-69
2023/12/02 10:25:56;;;;;;;3.07;1.90;;;19.60;56.40;;;;;;5016142;28;20454;-68
2023/12/02 10:28:39;;;;;;;2.60;2.13;;;19.50;56.30;;;;;;5016554;28;20821;-68
2023/12/02 10:31:06;;;;;;;2.90;2.10;;;19.60;56.40;;;;;;5016560;28;20414;-68
2023/12/02 10:33:42;;;;;;;2.57;2.10;;;19.50;56.40;;;;;;5016365;28;20789;-68
2023/12/02 10:36:10;;;;;;;2.40;2.00;;;19.60;56.40;;;;;;5016385;28;20469;-67
2023/12/02 10:38:45;;;;;;;2.80;2.30;;;19.50;56.40;;;;;;5016255;28;20497;-67
2023/12/02 10:41:45;;;;;;;3.10;2.00;;;19.60;56.40;;;;;;5016470;28;20460;-68
2023/12/02 10:44:15;;;;;;;2.87;2.57;;;19.60;56.50;;;;;;5016302;28;20417;-68
2023/12/02 10:46:42;;;;;;;2.50;1.90;;;19.50;56.40;;;;;;5016169;28;20407;-68
2023/12/02 10:49:11;;;;;;;2.20;1.80;;;19.50;56.40;;;;;;5016124;28;20407;-67
2023/12/02 10:51:44;;;;;;;2.77;1.90;;;19.50;56.40;;;;;;5014147;28;21010;-69
2023/12/02 10:54:15;;;;;;;2.60;1.93;;;19.50;56.40;;;;;;5013135;28;20462;-67
2023/12/02 10:56:45;;;;;;;2.57;1.70;;;19.50;56.40;;;;;;5013032;28;20412;-67
2023/12/02 10:59:12;;;;;;;1.93;1.67;;;19.50;56.40;;;;;;5013005;28;20482;-67
2023/12/02 11:01:44;;;;;;;3.00;2.00;;;19.50;56.40;;;;;;5012986;28;20936;-67
2023/12/02 11:04:23;;;;;;;2.40;2.03;;;19.50;56.40;;;;;;5012854;28;20411;-67
2023/12/02 11:07:01;;;;;;;2.20;2.00;;;19.60;56.50;;;;;;5012876;28;20417;-67
2023/12/02 11:09:52;;;;;;;3.57;2.50;;;19.60;56.40;;;;;;5012787;28;20418;-68
2023/12/02 11:12:40;;;;;;;2.77;2.00;;;19.50;56.40;;;;;;5011404;28;20424;-67
2023/12/02 11:15:11;;;;;;;2.33;1.80;;;19.60;56.50;;;;;;5012514;28;20560;-67
2023/12/02 11:17:42;;;;;;;3.00;1.90;;;19.60;56.50;;;;;;5012963;28;20763;-67
2023/12/02 11:20:22;;;;;;;2.03;1.83;;;19.60;56.50;;;;;;5012464;28;20419;-68
2023/12/02 11:23:06;;;;;;;2.30;2.10;;;19.60;56.50;;;;;;5012676;28;20407;-68
2023/12/02 11:25:46;;;;;;;2.50;2.07;;;19.60;56.40;;;;;;5012386;28;20466;-68
2023/12/02 11:28:27;;;;;;;5.80;3.07;;;19.60;56.40;;;;;;5012443;28;20469;-69
2023/12/02 11:31:11;;;;;;;11.60;5.67;;;19.60;56.40;;;;;;5012714;28;20751;-69
2023/12/02 11:34:05;;;;;;;9.30;4.70;;;19.60;56.40;;;;;;5012407;28;20414;-67
2023/12/02 11:37:07;;;;;;;24.47;11.53;;;19.60;56.40;;;;;;5012196;28;20455;-67
2023/12/02 11:39:39;;;;;;;29.80;14.53;;;19.60;56.40;;;;;;5004094;28;20419;-69
2023/12/02 11:42:18;;;;;;;31.70;15.00;;;19.50;56.40;;;;;;5012238;28;20418;-68
2023/12/02 11:45:22;;;;;;;37.87;17.33;;;19.60;56.50;;;;;;5012200;28;20427;-68
2023/12/02 11:48:13;;;;;;;31.20;17.37;;;19.60;56.50;;;;;;5012214;28;20494;-68
2023/12/02 11:50:39;;;;;;;35.10;16.33;;;19.60;56.50;;;;;;5010192;28;20778;-68
2023/12/02 11:53:25;;;;;;;34.83;15.27;;;19.50;56.40;;;;;;5012100;28;20407;-67
2023/12/02 11:56:10;;;;;;;32.57;17.60;;;19.50;56.40;;;;;;5010504;28;20306;-68
2023/12/02 11:58:58;;;;;;;43.37;22.00;;;19.60;56.50;;;;;;5012269;28;20805;-67
2023/12/02 12:01:44;;;;;;;42.70;21.73;;;19.60;56.50;;;;;;5012195;28;20400;-68
2023/12/02 12:04:15;;;;;;;58.93;25.50;;;19.60;56.50;;;;;;5011622;28;20426;-67
2023/12/02 12:06:52;;;;;;;56.47;27.80;;;19.60;56.50;;;;;;5011917;28;20419;-67
2023/12/02 12:09:30;;;;;;;55.17;28.10;;;19.60;56.50;;;;;;5011862;28;20479;-67
2023/12/02 12:11:58;;;;;;;51.50;25.50;;;19.60;56.50;;;;;;5011827;28;20411;-67
2023/12/02 12:14:27;;;;;;;59.17;27.10;;;19.60;56.50;;;;;;5011609;28;20490;-68
2023/12/02 12:16:53;;;;;;;61.50;30.40;;;19.60;56.60;;;;;;5011678;28;20437;-67
2023/12/02 12:19:18;;;;;;;62.33;30.17;;;19.60;56.50;;;;;;5011538;28;20494;-67
2023/12/02 12:21:44;;;;;;;58.17;28.40;;;19.60;56.50;;;;;;5011862;28;20675;-67
2023/12/02 12:24:10;;;;;;;54.40;26.40;;;19.60;56.50;;;;;;5011860;28;20230;-67
2023/12/02 12:26:35;;;;;;;58.33;28.00;;;19.60;56.50;;;;;;5011311;28;20307;-67
2023/12/02 12:29:01;;;;;;;60.27;28.47;;;19.60;56.50;;;;;;5011402;28;20188;-67
2023/12/02 12:31:30;;;;;;;53.60;28.70;;;19.60;56.50;;;;;;5011360;28;20168;-66
2023/12/02 12:33:56;;;;;;;64.47;30.00;;;19.60;56.50;;;;;;5011232;28;20418;-67
2023/12/02 12:36:31;;;;;;;60.80;29.40;;;19.60;56.50;;;;;;5011298;28;21100;-67
2023/12/02 12:38:57;;;;;;;61.77;30.60;;;19.60;56.50;;;;;;5011238;28;20395;-67
2023/12/02 12:41:24;;;;;;;62.90;31.47;;;19.60;56.50;;;;;;5011500;28;20478;-67
2023/12/02 12:43:50;;;;;;;58.93;28.90;;;19.60;56.50;;;;;;5011132;28;20448;-66
2023/12/02 12:46:16;;;;;;;64.47;31.50;;;19.60;56.50;;;;;;5011334;28;20988;-68
2023/12/02 12:48:49;;;;;;;70.60;31.63;;;19.60;56.50;;;;;;5011052;28;20200;-68
2023/12/02 12:51:21;;;;;;;61.60;29.77;;;19.60;56.50;;;;;;5011082;28;20169;-67